EWG7172 EDDH-EDDM
Flight info
| Callsign | EWG7172 |
|---|---|
| Flight time | 0h 59m |
| Altitude | 35000 |
| Route | AMLUH2C/05 AMLUH M852 DENIX DCT ZUCKA DCT SODRO/N0454F310 T703 LULAR/N0456F300 T105 LANDU LANDU2B |
| Aircraft | A320/M-SDE3FGHIRWY/LB1 |
Departure
| Time | 2026-05-07 13:07 |
|---|---|
| Airport | Hamburg Helmut Schmidt Airport (EDDH) |
Arrival
| Time | 2026-05-07 14:06 |
|---|---|
| Airport | Munich Airport (EDDM) |
| Time | Latitude | Longitude | Altitude | Speed | Heading |
|---|---|---|---|---|---|
| 2026-05-07 12:19 | 53.62810 | 10.00250 | 49 ft | 0 kts | 63° |
| 2026-05-07 12:55 | 53.62807 | 10.00239 | 48 ft | 3 kts | 62° |
| 2026-05-07 12:55 | 53.62795 | 10.00203 | 45 ft | 3 kts | 55° |
| 2026-05-07 12:55 | 53.62780 | 10.00172 | 46 ft | 3 kts | 41° |
| 2026-05-07 12:56 | 53.62761 | 10.00152 | 46 ft | 3 kts | 4° |
| 2026-05-07 12:56 | 53.62750 | 10.00154 | 47 ft | 0 kts | 333° |
| 2026-05-07 12:59 | 53.62752 | 10.00152 | 47 ft | 1 kts | 333° |
| 2026-05-07 12:59 | 53.62756 | 10.00148 | 47 ft | 0 kts | 333° |
| 2026-05-07 12:59 | 53.62758 | 10.00147 | 47 ft | 1 kts | 333° |
| 2026-05-07 12:59 | 53.62774 | 10.00133 | 48 ft | 3 kts | 333° |
| 2026-05-07 13:00 | 53.62809 | 10.00100 | 48 ft | 6 kts | 323° |
| 2026-05-07 13:00 | 53.62831 | 10.00048 | 46 ft | 5 kts | 289° |
| 2026-05-07 13:00 | 53.62827 | 9.99996 | 48 ft | 4 kts | 255° |
| 2026-05-07 13:00 | 53.62819 | 9.99982 | 47 ft | 0 kts | 226° |
| 2026-05-07 13:01 | 53.62789 | 9.99947 | 47 ft | 14 kts | 210° |
| 2026-05-07 13:01 | 53.62696 | 9.99861 | 45 ft | 15 kts | 210° |
| 2026-05-07 13:02 | 53.62637 | 9.99739 | 43 ft | 13 kts | 256° |
| 2026-05-07 13:02 | 53.62619 | 9.99589 | 47 ft | 15 kts | 259° |
| 2026-05-07 13:02 | 53.62597 | 9.99393 | 47 ft | 19 kts | 259° |
| 2026-05-07 13:02 | 53.62569 | 9.99149 | 47 ft | 22 kts | 259° |
| 2026-05-07 13:03 | 53.62542 | 9.98911 | 47 ft | 20 kts | 259° |
| 2026-05-07 13:03 | 53.62517 | 9.98691 | 47 ft | 18 kts | 259° |
| 2026-05-07 13:03 | 53.62494 | 9.98488 | 47 ft | 17 kts | 259° |
| 2026-05-07 13:03 | 53.62473 | 9.98300 | 47 ft | 16 kts | 258° |
| 2026-05-07 13:04 | 53.62440 | 9.98134 | 45 ft | 14 kts | 243° |
| 2026-05-07 13:04 | 53.62386 | 9.98001 | 47 ft | 13 kts | 230° |
| 2026-05-07 13:04 | 53.62329 | 9.97884 | 47 ft | 12 kts | 230° |
| 2026-05-07 13:04 | 53.62275 | 9.97778 | 47 ft | 11 kts | 230° |
| 2026-05-07 13:05 | 53.62227 | 9.97679 | 47 ft | 11 kts | 231° |
| 2026-05-07 13:05 | 53.62183 | 9.97567 | 45 ft | 11 kts | 249° |
| 2026-05-07 13:05 | 53.62191 | 9.97448 | 42 ft | 11 kts | 292° |
| 2026-05-07 13:05 | 53.62252 | 9.97349 | 41 ft | 14 kts | 323° |
| 2026-05-07 13:06 | 53.62313 | 9.97355 | 38 ft | 5 kts | 47° |
| 2026-05-07 13:06 | 53.62313 | 9.97357 | 39 ft | 2 kts | 49° |
| 2026-05-07 13:06 | 53.62495 | 9.97725 | 41 ft | 78 kts | 51° |
| 2026-05-07 13:06 | 53.62970 | 9.98693 | 45 ft | 135 kts | 50° |
| 2026-05-07 13:07 | 53.63618 | 10.00041 | 459 ft | 150 kts | 51° |
| 2026-05-07 13:07 | 53.64286 | 10.01413 | 1277 ft | 152 kts | 50° |
| 2026-05-07 13:07 | 53.64997 | 10.02847 | 1776 ft | 169 kts | 51° |
| 2026-05-07 13:07 | 53.65799 | 10.04477 | 2132 ft | 193 kts | 51° |
| 2026-05-07 13:08 | 53.66683 | 10.06273 | 2858 ft | 202 kts | 51° |
| 2026-05-07 13:08 | 53.67589 | 10.08110 | 3722 ft | 205 kts | 52° |
| 2026-05-07 13:08 | 53.68510 | 10.09985 | 4558 ft | 210 kts | 52° |
| 2026-05-07 13:08 | 53.69444 | 10.11888 | 4918 ft | 213 kts | 52° |
| 2026-05-07 13:09 | 53.70236 | 10.13956 | 4992 ft | 209 kts | 71° |
| 2026-05-07 13:09 | 53.70413 | 10.16368 | 5007 ft | 209 kts | 97° |
| 2026-05-07 13:09 | 53.69909 | 10.18714 | 5013 ft | 231 kts | 122° |
| 2026-05-07 13:09 | 53.68642 | 10.20598 | 5010 ft | 256 kts | 152° |
| 2026-05-07 13:10 | 53.66913 | 10.21512 | 5009 ft | 263 kts | 162° |
| 2026-05-07 13:10 | 53.65141 | 10.22300 | 5007 ft | 263 kts | 162° |
| 2026-05-07 13:10 | 53.63387 | 10.23071 | 5009 ft | 264 kts | 162° |
| 2026-05-07 13:10 | 53.61587 | 10.23866 | 5009 ft | 264 kts | 162° |
| 2026-05-07 13:11 | 53.59795 | 10.24667 | 5260 ft | 272 kts | 162° |
| 2026-05-07 13:11 | 53.57970 | 10.25487 | 6350 ft | 271 kts | 162° |
| 2026-05-07 13:11 | 53.56140 | 10.26307 | 7300 ft | 274 kts | 163° |
| 2026-05-07 13:11 | 53.54313 | 10.27126 | 8204 ft | 278 kts | 163° |
| 2026-05-07 13:12 | 53.52430 | 10.27970 | 9108 ft | 282 kts | 163° |
| 2026-05-07 13:12 | 53.50516 | 10.28830 | 10007 ft | 286 kts | 164° |
| 2026-05-07 13:12 | 53.48540 | 10.29719 | 10485 ft | 305 kts | 165° |
| 2026-05-07 13:12 | 53.46408 | 10.30675 | 10771 ft | 329 kts | 165° |
| 2026-05-07 13:13 | 53.44127 | 10.31696 | 11112 ft | 348 kts | 165° |
| 2026-05-07 13:13 | 53.41760 | 10.32754 | 11777 ft | 355 kts | 165° |
| 2026-05-07 13:13 | 53.39362 | 10.33830 | 12515 ft | 359 kts | 165° |
| 2026-05-07 13:13 | 53.36929 | 10.34929 | 13262 ft | 364 kts | 165° |
| 2026-05-07 13:14 | 53.34503 | 10.36027 | 13988 ft | 369 kts | 165° |
| 2026-05-07 13:14 | 53.32008 | 10.37149 | 14619 ft | 374 kts | 165° |
| 2026-05-07 13:14 | 53.29485 | 10.38280 | 15295 ft | 377 kts | 165° |
| 2026-05-07 13:14 | 53.26941 | 10.39415 | 15936 ft | 381 kts | 166° |
| 2026-05-07 13:15 | 53.24367 | 10.40563 | 16565 ft | 385 kts | 166° |
| 2026-05-07 13:15 | 53.21773 | 10.41725 | 17236 ft | 388 kts | 166° |
| 2026-05-07 13:15 | 53.19158 | 10.42897 | 17885 ft | 391 kts | 166° |
| 2026-05-07 13:15 | 53.16517 | 10.44072 | 18473 ft | 395 kts | 166° |
| 2026-05-07 13:16 | 53.13856 | 10.45252 | 19022 ft | 397 kts | 166° |
| 2026-05-07 13:16 | 53.11203 | 10.46351 | 19576 ft | 399 kts | 168° |
| 2026-05-07 13:16 | 53.08475 | 10.47301 | 20127 ft | 401 kts | 170° |
| 2026-05-07 13:16 | 53.05721 | 10.48138 | 20670 ft | 404 kts | 172° |
| 2026-05-07 13:17 | 53.02945 | 10.48927 | 21203 ft | 406 kts | 172° |
| 2026-05-07 13:17 | 53.00151 | 10.49717 | 21722 ft | 409 kts | 172° |
| 2026-05-07 13:17 | 52.97332 | 10.50535 | 22257 ft | 411 kts | 172° |
| 2026-05-07 13:17 | 52.94516 | 10.51375 | 22759 ft | 414 kts | 171° |
| 2026-05-07 13:18 | 52.91678 | 10.52243 | 23270 ft | 417 kts | 171° |
| 2026-05-07 13:18 | 52.88861 | 10.53120 | 23728 ft | 419 kts | 171° |
| 2026-05-07 13:18 | 52.85984 | 10.54025 | 24116 ft | 422 kts | 171° |
| 2026-05-07 13:18 | 52.83095 | 10.54929 | 24512 ft | 424 kts | 170° |
| 2026-05-07 13:19 | 52.80183 | 10.55832 | 24901 ft | 427 kts | 171° |
| 2026-05-07 13:19 | 52.77259 | 10.56734 | 25292 ft | 429 kts | 171° |
| 2026-05-07 13:19 | 52.74318 | 10.57636 | 25654 ft | 431 kts | 171° |
| 2026-05-07 13:19 | 52.71359 | 10.58543 | 26035 ft | 434 kts | 171° |
| 2026-05-07 13:20 | 52.68385 | 10.59453 | 26419 ft | 436 kts | 171° |
| 2026-05-07 13:20 | 52.65393 | 10.60368 | 26770 ft | 439 kts | 170° |
| 2026-05-07 13:20 | 52.62385 | 10.61286 | 27133 ft | 441 kts | 170° |
| 2026-05-07 13:20 | 52.59396 | 10.62198 | 27480 ft | 444 kts | 170° |
| 2026-05-07 13:21 | 52.56353 | 10.63122 | 27823 ft | 446 kts | 170° |
| 2026-05-07 13:21 | 52.53297 | 10.64050 | 28156 ft | 448 kts | 171° |
| 2026-05-07 13:21 | 52.50227 | 10.64982 | 28486 ft | 450 kts | 171° |
| 2026-05-07 13:21 | 52.47146 | 10.65919 | 28814 ft | 452 kts | 171° |
| 2026-05-07 13:22 | 52.44047 | 10.66863 | 29132 ft | 454 kts | 171° |
| 2026-05-07 13:22 | 52.40937 | 10.67808 | 29456 ft | 456 kts | 171° |
| 2026-05-07 13:22 | 52.37823 | 10.68745 | 29886 ft | 455 kts | 171° |
| 2026-05-07 13:22 | 52.34713 | 10.69675 | 30317 ft | 454 kts | 171° |
| 2026-05-07 13:23 | 52.31609 | 10.70605 | 30693 ft | 453 kts | 171° |
| 2026-05-07 13:23 | 52.28554 | 10.71523 | 31055 ft | 453 kts | 171° |
| 2026-05-07 13:23 | 52.25454 | 10.72452 | 31417 ft | 452 kts | 171° |
| 2026-05-07 13:23 | 52.22365 | 10.73376 | 31780 ft | 452 kts | 171° |
| 2026-05-07 13:24 | 52.19273 | 10.74303 | 32119 ft | 452 kts | 171° |
| 2026-05-07 13:24 | 52.16174 | 10.75233 | 32445 ft | 452 kts | 170° |
| 2026-05-07 13:24 | 52.13086 | 10.76159 | 32778 ft | 452 kts | 170° |
| 2026-05-07 13:24 | 52.09993 | 10.77083 | 33108 ft | 452 kts | 170° |
| 2026-05-07 13:25 | 52.06898 | 10.78008 | 33448 ft | 452 kts | 170° |
| 2026-05-07 13:25 | 52.03805 | 10.78930 | 33765 ft | 452 kts | 170° |
| 2026-05-07 13:25 | 52.00709 | 10.79848 | 34097 ft | 452 kts | 170° |
| 2026-05-07 13:25 | 51.97656 | 10.80754 | 34361 ft | 453 kts | 170° |
| 2026-05-07 13:26 | 51.94559 | 10.81669 | 34683 ft | 451 kts | 170° |
| 2026-05-07 13:26 | 51.91476 | 10.82577 | 34972 ft | 450 kts | 170° |
| 2026-05-07 13:26 | 51.85316 | 10.84397 | 35049 ft | 450 kts | 170° |
| 2026-05-07 13:27 | 51.79159 | 10.86210 | 35048 ft | 449 kts | 171° |
| 2026-05-07 13:27 | 51.74040 | 10.87712 | 35041 ft | 449 kts | 171° |
| 2026-05-07 13:28 | 51.67200 | 10.90080 | 35043 ft | 449 kts | 161° |
| 2026-05-07 13:28 | 51.61516 | 10.94301 | 35042 ft | 451 kts | 155° |
| 2026-05-07 13:29 | 51.55887 | 10.98748 | 35039 ft | 450 kts | 155° |
| 2026-05-07 13:29 | 51.50259 | 11.03165 | 35026 ft | 451 kts | 155° |
| 2026-05-07 13:30 | 51.44659 | 11.07564 | 35022 ft | 452 kts | 155° |
| 2026-05-07 13:30 | 51.39012 | 11.11985 | 35018 ft | 452 kts | 155° |
| 2026-05-07 13:31 | 51.33360 | 11.16394 | 35015 ft | 452 kts | 155° |
| 2026-05-07 13:31 | 51.27737 | 11.20773 | 35016 ft | 452 kts | 155° |
| 2026-05-07 13:32 | 51.22079 | 11.25170 | 35012 ft | 452 kts | 155° |
| 2026-05-07 13:32 | 51.16458 | 11.29513 | 35020 ft | 453 kts | 155° |
| 2026-05-07 13:33 | 51.10784 | 11.33891 | 35019 ft | 453 kts | 155° |
| 2026-05-07 13:33 | 51.05108 | 11.38260 | 35011 ft | 453 kts | 155° |
| 2026-05-07 13:34 | 50.96605 | 11.44788 | 35009 ft | 452 kts | 155° |
| 2026-05-07 13:35 | 50.90933 | 11.49124 | 35008 ft | 452 kts | 155° |
| 2026-05-07 13:35 | 50.85293 | 11.53410 | 35003 ft | 453 kts | 155° |
| 2026-05-07 13:36 | 50.79619 | 11.57742 | 35001 ft | 453 kts | 155° |
| 2026-05-07 13:36 | 50.73941 | 11.62053 | 34994 ft | 453 kts | 155° |
| 2026-05-07 13:37 | 50.68241 | 11.66359 | 34995 ft | 454 kts | 155° |
| 2026-05-07 13:37 | 50.62537 | 11.70656 | 34994 ft | 454 kts | 155° |
| 2026-05-07 13:38 | 50.56878 | 11.74919 | 34991 ft | 454 kts | 156° |
| 2026-05-07 13:38 | 50.51177 | 11.79199 | 34999 ft | 454 kts | 156° |
| 2026-05-07 13:39 | 50.45474 | 11.83450 | 35002 ft | 453 kts | 156° |
| 2026-05-07 13:39 | 50.39713 | 11.87453 | 35002 ft | 453 kts | 158° |
| 2026-05-07 13:40 | 50.33940 | 11.91258 | 35002 ft | 453 kts | 159° |
| 2026-05-07 13:40 | 50.28143 | 11.95104 | 35003 ft | 453 kts | 158° |
| 2026-05-07 13:41 | 50.22364 | 11.98998 | 34998 ft | 453 kts | 158° |
| 2026-05-07 13:41 | 50.16579 | 12.02901 | 34988 ft | 452 kts | 158° |
| 2026-05-07 13:42 | 50.10841 | 12.06756 | 34989 ft | 452 kts | 158° |
| 2026-05-07 13:42 | 50.05067 | 12.10605 | 34991 ft | 451 kts | 159° |
| 2026-05-07 13:43 | 49.99291 | 12.14449 | 34982 ft | 451 kts | 159° |
| 2026-05-07 13:43 | 49.93522 | 12.18290 | 34987 ft | 451 kts | 159° |
| 2026-05-07 13:44 | 49.87785 | 12.22084 | 34983 ft | 451 kts | 159° |
| 2026-05-07 13:44 | 49.82007 | 12.25897 | 34985 ft | 451 kts | 159° |
| 2026-05-07 13:45 | 49.76230 | 12.29708 | 34977 ft | 451 kts | 159° |
| 2026-05-07 13:45 | 49.70661 | 12.34193 | 34990 ft | 455 kts | 146° |
| 2026-05-07 13:46 | 49.65613 | 12.40099 | 34999 ft | 455 kts | 145° |
| 2026-05-07 13:46 | 49.60602 | 12.45953 | 34990 ft | 455 kts | 145° |
| 2026-05-07 13:46 | 49.58075 | 12.48894 | 34782 ft | 455 kts | 145° |
| 2026-05-07 13:47 | 49.55546 | 12.51831 | 34223 ft | 457 kts | 145° |
| 2026-05-07 13:47 | 49.52987 | 12.54794 | 33130 ft | 463 kts | 145° |
| 2026-05-07 13:47 | 49.50406 | 12.57781 | 32134 ft | 466 kts | 145° |
| 2026-05-07 13:47 | 49.47802 | 12.60790 | 31095 ft | 470 kts | 145° |
| 2026-05-07 13:48 | 49.45172 | 12.63826 | 29955 ft | 476 kts | 146° |
| 2026-05-07 13:48 | 49.42512 | 12.66841 | 28748 ft | 476 kts | 149° |
| 2026-05-07 13:48 | 49.39651 | 12.69293 | 27364 ft | 469 kts | 159° |
| 2026-05-07 13:48 | 49.36554 | 12.70827 | 26195 ft | 466 kts | 172° |
| 2026-05-07 13:49 | 49.33368 | 12.71286 | 25382 ft | 455 kts | 184° |
| 2026-05-07 13:49 | 49.30301 | 12.70770 | 24574 ft | 445 kts | 195° |
| 2026-05-07 13:49 | 49.27382 | 12.69353 | 23777 ft | 436 kts | 206° |
| 2026-05-07 13:49 | 49.24649 | 12.67408 | 22929 ft | 430 kts | 207° |
| 2026-05-07 13:50 | 49.21955 | 12.65484 | 22155 ft | 425 kts | 207° |
| 2026-05-07 13:50 | 49.19297 | 12.63588 | 21475 ft | 418 kts | 207° |
| 2026-05-07 13:50 | 49.16678 | 12.61718 | 20812 ft | 412 kts | 207° |
| 2026-05-07 13:50 | 49.14968 | 12.60497 | 20397 ft | 408 kts | 207° |
| 2026-05-07 13:51 | 49.12416 | 12.58673 | 19775 ft | 402 kts | 207° |
| 2026-05-07 13:51 | 49.09091 | 12.56298 | 18996 ft | 394 kts | 207° |
| 2026-05-07 13:51 | 49.06625 | 12.54541 | 18449 ft | 389 kts | 207° |
| 2026-05-07 13:51 | 49.04192 | 12.52804 | 17849 ft | 383 kts | 207° |
| 2026-05-07 13:52 | 49.01807 | 12.51098 | 17341 ft | 375 kts | 208° |
| 2026-05-07 13:52 | 49.00251 | 12.49984 | 17001 ft | 371 kts | 208° |
| 2026-05-07 13:52 | 48.97930 | 12.48325 | 16492 ft | 366 kts | 208° |
| 2026-05-07 13:52 | 48.95636 | 12.46686 | 15986 ft | 362 kts | 208° |
| 2026-05-07 13:53 | 48.93370 | 12.45068 | 15462 ft | 358 kts | 208° |
| 2026-05-07 13:53 | 48.90404 | 12.42954 | 14762 ft | 354 kts | 207° |
| 2026-05-07 13:53 | 48.88183 | 12.41373 | 14231 ft | 352 kts | 207° |
| 2026-05-07 13:53 | 48.85844 | 12.40138 | 13682 ft | 361 kts | 196° |
| 2026-05-07 13:54 | 48.84217 | 12.39602 | 13270 ft | 362 kts | 195° |
| 2026-05-07 13:54 | 48.81747 | 12.38827 | 12686 ft | 362 kts | 194° |
| 2026-05-07 13:54 | 48.79287 | 12.38060 | 12113 ft | 360 kts | 195° |
| 2026-05-07 13:54 | 48.76845 | 12.37302 | 11545 ft | 355 kts | 195° |
| 2026-05-07 13:55 | 48.74420 | 12.36554 | 10971 ft | 356 kts | 194° |
| 2026-05-07 13:55 | 48.72003 | 12.35807 | 10351 ft | 353 kts | 194° |
| 2026-05-07 13:55 | 48.68922 | 12.34868 | 10008 ft | 322 kts | 194° |
| 2026-05-07 13:55 | 48.67488 | 12.34442 | 10004 ft | 300 kts | 194° |
| 2026-05-07 13:56 | 48.65635 | 12.33903 | 9915 ft | 286 kts | 195° |
| 2026-05-07 13:56 | 48.63718 | 12.33355 | 9490 ft | 280 kts | 194° |
| 2026-05-07 13:56 | 48.61818 | 12.32804 | 9063 ft | 276 kts | 194° |
| 2026-05-07 13:56 | 48.59975 | 12.32263 | 8644 ft | 265 kts | 194° |
| 2026-05-07 13:57 | 48.58202 | 12.31745 | 8276 ft | 253 kts | 194° |
| 2026-05-07 13:57 | 48.56512 | 12.31261 | 7991 ft | 240 kts | 194° |
| 2026-05-07 13:57 | 48.54911 | 12.30813 | 7737 ft | 229 kts | 194° |
| 2026-05-07 13:57 | 48.53360 | 12.30382 | 7485 ft | 226 kts | 194° |
| 2026-05-07 13:58 | 48.51765 | 12.29932 | 7237 ft | 238 kts | 194° |
| 2026-05-07 13:58 | 48.50137 | 12.29471 | 6921 ft | 238 kts | 194° |
| 2026-05-07 13:58 | 48.48511 | 12.29012 | 6595 ft | 237 kts | 194° |
| 2026-05-07 13:58 | 48.46919 | 12.28558 | 6355 ft | 236 kts | 195° |
| 2026-05-07 13:59 | 48.45444 | 12.27637 | 6087 ft | 227 kts | 223° |
| 2026-05-07 13:59 | 48.44393 | 12.25898 | 5825 ft | 224 kts | 241° |
| 2026-05-07 13:59 | 48.43665 | 12.23834 | 5580 ft | 223 kts | 245° |
| 2026-05-07 13:59 | 48.42955 | 12.21750 | 5399 ft | 224 kts | 245° |
| 2026-05-07 14:00 | 48.42241 | 12.19660 | 5272 ft | 224 kts | 245° |
| 2026-05-07 14:00 | 48.41543 | 12.17623 | 5145 ft | 214 kts | 245° |
| 2026-05-07 14:00 | 48.40868 | 12.15654 | 5051 ft | 211 kts | 245° |
| 2026-05-07 14:00 | 48.40201 | 12.13709 | 5005 ft | 209 kts | 245° |
| 2026-05-07 14:01 | 48.39548 | 12.11802 | 5003 ft | 199 kts | 245° |
| 2026-05-07 14:01 | 48.38945 | 12.10024 | 4997 ft | 190 kts | 248° |
| 2026-05-07 14:01 | 48.38641 | 12.08125 | 4871 ft | 185 kts | 264° |
| 2026-05-07 14:01 | 48.38493 | 12.06202 | 4652 ft | 185 kts | 265° |
| 2026-05-07 14:02 | 48.38351 | 12.04271 | 4404 ft | 186 kts | 265° |
| 2026-05-07 14:02 | 48.38208 | 12.02351 | 4175 ft | 183 kts | 264° |
| 2026-05-07 14:02 | 48.38069 | 12.00483 | 3914 ft | 177 kts | 264° |
| 2026-05-07 14:02 | 48.37935 | 11.98688 | 3677 ft | 167 kts | 266° |
| 2026-05-07 14:03 | 48.37810 | 11.97027 | 3466 ft | 152 kts | 266° |
| 2026-05-07 14:03 | 48.37698 | 11.95527 | 3278 ft | 139 kts | 265° |
| 2026-05-07 14:03 | 48.37592 | 11.94107 | 3096 ft | 135 kts | 265° |
| 2026-05-07 14:03 | 48.37488 | 11.92715 | 2914 ft | 133 kts | 266° |
| 2026-05-07 14:04 | 48.37385 | 11.91347 | 2740 ft | 131 kts | 266° |
| 2026-05-07 14:04 | 48.37283 | 11.89990 | 2563 ft | 130 kts | 267° |
| 2026-05-07 14:04 | 48.37182 | 11.88656 | 2376 ft | 131 kts | 268° |
| 2026-05-07 14:04 | 48.37079 | 11.87290 | 2183 ft | 131 kts | 268° |
| 2026-05-07 14:05 | 48.36976 | 11.85938 | 2008 ft | 129 kts | 268° |
| 2026-05-07 14:05 | 48.36873 | 11.84585 | 1814 ft | 132 kts | 269° |
| 2026-05-07 14:05 | 48.36767 | 11.83222 | 1675 ft | 133 kts | 269° |
| 2026-05-07 14:05 | 48.36667 | 11.81844 | 1478 ft | 130 kts | 268° |
| 2026-05-07 14:06 | 48.36583 | 11.80725 | 1485 ft | 84 kts | 263° |
| 2026-05-07 14:06 | 48.36535 | 11.80111 | 1479 ft | 35 kts | 264° |
| 2026-05-07 14:06 | 48.36490 | 11.79816 | 1477 ft | 29 kts | 247° |
| 2026-05-07 14:06 | 48.36410 | 11.79621 | 1480 ft | 15 kts | 233° |
| 2026-05-07 14:07 | 48.36373 | 11.79545 | 1485 ft | 8 kts | 233° |
| 2026-05-07 14:07 | 48.36343 | 11.79484 | 1471 ft | 7 kts | 233° |
| 2026-05-07 14:07 | 48.36318 | 11.79432 | 1476 ft | 6 kts | 234° |
| 2026-05-07 14:07 | 48.36297 | 11.79390 | 1482 ft | 5 kts | 232° |
| 2026-05-07 14:08 | 48.36279 | 11.79356 | 1473 ft | 2 kts | 232° |
| 2026-05-07 14:08 | 48.36279 | 11.79354 | 1478 ft | 0 kts | 232° |
| 2026-05-07 14:09 | 48.36270 | 11.79339 | 1470 ft | 6 kts | 227° |
| 2026-05-07 14:10 | 48.36219 | 11.79299 | 1477 ft | 8 kts | 190° |
| 2026-05-07 14:10 | 48.36166 | 11.79303 | 1481 ft | 7 kts | 175° |
| 2026-05-07 14:10 | 48.36148 | 11.79306 | 1483 ft | 0 kts | 173° |
| 2026-05-07 14:15 | 48.36119 | 11.79311 | 1475 ft | 11 kts | 173° |
| 2026-05-07 14:15 | 48.36041 | 11.79325 | 1483 ft | 11 kts | 173° |
| 2026-05-07 14:15 | 48.36019 | 11.79328 | 1475 ft | 0 kts | 175° |